Time;durP1;ratioP1;P1;durP2;ratioP2;P2;SDS_P1;SDS_P2;PMS_P1;PMS_P2;Temp;Humidity;BMP_temperature;BMP_pressure;BME280_temperature;BME280_humidity;BME280_pressure;Samples;Min_cycle;Max_cycle;Signal;HPM_P1;HPM_P2
2021/01/24 00:03:05;;;;;;;8.07;5.70;;;;;;;7.32;59.29;98958.81;6375573;22;20018;-93
2021/01/24 00:06:07;;;;;;;7.20;5.40;;;;;;;6.94;59.81;98882.03;6326208;22;20022;-92
2021/01/24 00:08:33;;;;;;;8.05;5.63;;;;;;;6.94;59.78;98910.63;6347281;22;20050;-93
2021/01/24 00:11:13;;;;;;;7.95;6.10;;;;;;;7.17;60.12;98944.72;6372585;22;20018;-92
2021/01/24 00:14:14;;;;;;;8.90;5.45;;;;;;;7.18;59.39;98950.72;6372101;22;20126;-92
2021/01/24 00:16:55;;;;;;;8.75;5.60;;;;;;;6.92;59.38;98904.75;6347830;22;20074;-93
2021/01/24 00:23:18;;;;;;;6.50;5.30;;;;;;;7.21;59.41;98948.66;6377889;22;20014;-91
2021/01/24 00:26:15;;;;;;;7.15;5.20;;;;;;;7.13;59.92;98954.63;6329846;22;20033;-92
2021/01/24 00:32:42;;;;;;;5.90;5.13;;;;;;;6.34;58.95;98827.38;6380902;22;20049;-93
2021/01/24 00:35:30;;;;;;;7.78;5.57;;;;;;;6.58;59.58;98856.13;6374496;22;20048;-92
2021/01/24 00:38:54;;;;;;;8.20;5.13;;;;;;;7.22;59.61;98962.47;6373192;22;20394;-93
2021/01/24 11:18:15;;;;;;;5.32;4.07;;;;;;;5.88;63.88;99055.78;6353853;22;21447;-92
2021/01/24 11:21:16;;;;;;;5.85;3.72;;;;;;;6.88;63.46;99215.28;6405663;22;20066;-90
2021/01/24 11:31:53;;;;;;;3.97;3.53;;;;;;;6.69;64.04;99166.81;6412095;22;20112;-90
2021/01/24 11:34:40;;;;;;;4.03;3.60;;;;;;;4.55;63.54;98848.50;6381619;22;20025;-92
2021/01/24 11:37:39;;;;;;;5.88;3.90;;;;;;;6.91;64.23;99214.97;6365655;22;20018;-93
2021/01/24 11:40:13;;;;;;;5.53;4.15;;;;;;;6.68;63.87;99173.00;6354397;22;20043;-92
2021/01/24 11:42:45;;;;;;;5.30;4.03;;;;;;;7.04;63.77;99209.44;6376149;22;20021;-92
2021/01/24 11:45:11;;;;;;;4.90;4.10;;;;;;;6.85;64.25;99200.78;6376494;22;20025;-92
2021/01/24 11:47:37;;;;;;;5.10;4.38;;;;;;;6.67;63.36;99168.72;6375236;22;20445;-91
2021/01/24 11:50:05;;;;;;;7.38;4.82;;;;;;;7.01;63.57;99217.50;6375453;22;20028;-92
2021/01/24 11:52:46;;;;;;;5.38;4.22;;;;;;;6.80;63.70;99187.41;6355827;22;20022;-92
2021/01/24 11:55:26;;;;;;;5.25;4.55;;;;;;;6.96;63.56;99196.38;6379525;22;20021;-92
2021/01/24 11:57:52;;;;;;;5.80;4.07;;;;;;;7.08;63.31;99219.41;6376434;22;20323;-92
2021/01/24 12:00:19;;;;;;;5.30;3.85;;;;;;;7.09;63.26;99212.41;6376599;22;20345;-92
2021/01/24 12:02:57;;;;;;;5.93;4.13;;;;;;;6.67;63.72;99130.56;6351251;22;20034;-92
2021/01/24 12:05:23;;;;;;;4.80;4.25;;;;;;;6.99;63.32;99202.09;6375241;22;20391;-92
2021/01/24 12:07:49;;;;;;;6.60;4.63;;;;;;;7.11;63.04;99213.91;6376621;22;20066;-92
2021/01/24 12:10:30;;;;;;;5.88;3.85;;;;;;;7.01;63.63;99189.78;6355229;22;20422;-93
2021/01/24 12:13:10;;;;;;;6.10;4.47;;;;;;;5.61;62.89;98970.94;6378562;22;20018;-91
2021/01/24 12:15:36;;;;;;;5.53;4.13;;;;;;;5.85;62.96;99014.53;6376410;22;20097;-92
2021/01/24 12:18:02;;;;;;;6.40;4.45;;;;;;;6.41;63.04;99095.88;6344540;22;20022;-92
2021/01/24 12:20:30;;;;;;;5.28;4.30;;;;;;;6.79;63.70;99178.00;6369874;22;20026;-92
2021/01/24 12:22:57;;;;;;;7.18;4.82;;;;;;;5.42;63.27;98932.13;6370081;22;20068;-92
2021/01/24 12:25:23;;;;;;;5.65;4.38;;;;;;;6.89;63.15;99176.13;6345636;22;20022;-92
2021/01/24 12:27:49;;;;;;;5.80;4.75;;;;;;;7.12;63.67;99212.97;6370422;22;20767;-92
2021/01/24 12:30:15;;;;;;;7.60;5.22;;;;;;;5.22;62.88;98905.47;6343487;22;20019;-92
2021/01/24 12:32:44;;;;;;;6.07;4.63;;;;;;;5.47;63.33;98964.44;6368861;22;20018;-92
2021/01/24 12:35:12;;;;;;;5.68;4.63;;;;;;;6.70;63.08;99156.25;6369651;22;20051;-92
2021/01/24 12:37:38;;;;;;;6.25;4.80;;;;;;;5.50;63.02;98946.00;6343286;22;20089;-92
2021/01/24 12:40:06;;;;;;;8.05;5.07;;;;;;;7.07;63.37;99190.97;6367639;22;20022;-92
2021/01/24 12:42:36;;;;;;;8.30;5.32;;;;;;;7.19;63.41;99210.59;6342617;22;20042;-92
2021/01/24 12:45:03;;;;;;;7.47;5.03;;;;;;;4.86;63.00;98832.75;6369569;22;20019;-92
2021/01/24 12:47:30;;;;;;;6.85;5.20;;;;;;;7.21;64.16;99210.44;6364831;22;20015;-91
2021/01/24 12:49:56;;;;;;;7.25;5.55;;;;;;;6.75;63.26;99158.44;6365373;22;20022;-92
2021/01/24 12:52:22;;;;;;;7.63;5.57;;;;;;;7.22;63.59;99206.88;6367681;22;20053;-92
2021/01/24 12:54:49;;;;;;;7.15;5.57;;;;;;;7.06;63.34;99179.72;6367960;22;20026;-91
2021/01/24 12:57:15;;;;;;;8.95;6.38;;;;;;;6.81;63.65;99147.47;6367111;22;20067;-92
2021/01/24 12:59:44;;;;;;;8.48;6.00;;;;;;;6.84;63.68;99143.75;6367728;22;20018;-92
2021/01/24 13:02:12;;;;;;;7.72;6.47;;;;;;;7.05;63.88;99185.09;6367004;22;20392;-92
2021/01/24 13:04:38;;;;;;;9.10;6.32;;;;;;;6.81;63.35;99134.47;6365347;22;20033;-92
2021/01/24 13:07:07;;;;;;;9.10;6.57;;;;;;;7.05;63.70;99180.69;6366221;22;20018;-92
2021/01/24 13:09:37;;;;;;;8.52;6.43;;;;;;;7.40;63.93;99201.66;6367513;22;20075;-92
2021/01/24 13:12:04;;;;;;;9.57;6.90;;;;;;;7.34;63.83;99197.88;6342195;22;20076;-93
2021/01/24 13:15:28;;;;;;;8.60;6.68;;;;;;;7.50;63.44;99207.63;6342953;22;20022;-92
2021/01/24 13:18:12;;;;;;;9.07;6.40;;;;;;;7.07;63.45;99162.38;6371459;22;20018;-92
2021/01/24 13:20:38;;;;;;;10.25;7.15;;;;;;;6.82;63.23;99137.91;6369927;22;20026;-91
2021/01/24 13:23:04;;;;;;;10.05;6.95;;;;;;;7.36;63.32;99224.56;6369356;22;20022;-91
2021/01/24 13:25:30;;;;;;;10.55;6.32;;;;;;;3.06;62.46;98545.63;6368363;22;20025;-91
2021/01/24 13:27:56;;;;;;;10.23;7.15;;;;;;;7.27;63.54;99199.47;6370555;22;20015;-91
2021/01/24 13:30:23;;;;;;;10.68;7.45;;;;;;;5.04;62.87;98856.94;6369555;22;20091;-90
2021/01/24 13:32:49;;;;;;;11.23;7.80;;;;;;;5.74;62.80;98975.81;6369039;22;20604;-90
2021/01/24 13:35:16;;;;;;;10.07;7.10;;;;;;;6.89;63.53;99157.94;6371407;22;20018;-91
2021/01/24 13:37:42;;;;;;;12.85;7.82;;;;;;;5.99;63.07;98995.94;6369255;22;20075;-91
2021/01/24 13:40:08;;;;;;;11.40;7.43;;;;;;;4.34;63.22;98749.50;6370617;22;20027;-91
2021/01/24 13:42:35;;;;;;;10.90;7.53;;;;;;;7.29;63.63;99213.94;6371173;22;20022;-90
2021/01/24 13:45:01;;;;;;;10.77;7.80;;;;;;;4.78;62.93;98827.47;6371342;22;20021;-91
2021/01/24 13:47:27;;;;;;;10.10;7.50;;;;;;;7.36;63.31;99225.38;6370470;22;20014;-90
2021/01/24 13:49:53;;;;;;;9.85;7.28;;;;;;;7.14;63.02;99199.78;6345143;22;20023;-92
2021/01/24 13:52:20;;;;;;;8.90;7.18;;;;;;;3.77;62.79;98677.06;6370277;22;20022;-92
2021/01/24 13:54:46;;;;;;;9.68;7.63;;;;;;;3.97;62.88;98693.38;6370127;22;20014;-92
2021/01/24 13:57:12;;;;;;;9.63;7.10;;;;;;;6.88;63.38;99166.72;6372092;22;20022;-93
2021/01/24 13:59:38;;;;;;;9.70;7.05;;;;;;;7.37;63.66;99226.19;6371557;22;20025;-92
2021/01/24 14:02:04;;;;;;;11.18;7.78;;;;;;;6.97;63.20;99188.41;6345335;22;20030;-93
2021/01/24 14:04:31;;;;;;;8.63;6.82;;;;;;;4.86;62.73;98823.22;6371353;22;20022;-92
2021/01/24 14:06:57;;;;;;;9.80;7.38;;;;;;;6.72;63.48;99129.34;6372020;22;20071;-92
2021/01/24 14:09:40;;;;;;;9.63;7.40;;;;;;;7.51;63.43;99233.50;6370285;22;20022;-91
2021/01/24 14:12:20;;;;;;;9.70;6.57;;;;;;;7.18;63.62;99208.13;6346949;22;20097;-91
2021/01/24 14:14:46;;;;;;;9.57;7.07;;;;;;;7.00;63.25;99182.91;6370905;22;20097;-91
2021/01/24 14:17:12;;;;;;;10.10;7.70;;;;;;;6.30;63.76;99070.91;6370235;22;20445;-91
2021/01/24 14:19:38;;;;;;;9.75;7.70;;;;;;;7.12;63.46;99210.34;6371581;22;20022;-91
2021/01/24 14:22:05;;;;;;;9.05;7.10;;;;;;;7.11;63.35;99215.69;6370806;22;20022;-91
2021/01/24 14:24:31;;;;;;;10.70;7.78;;;;;;;6.87;63.41;99172.88;6371172;22;20029;-91
2021/01/24 14:26:57;;;;;;;9.27;7.32;;;;;;;7.33;63.62;99241.28;6370266;22;20041;-92
2021/01/24 14:29:23;;;;;;;9.82;7.00;;;;;;;7.33;63.27;99237.88;6344460;22;20022;-91
2021/01/24 14:31:51;;;;;;;9.60;7.65;;;;;;;7.21;63.04;99220.84;6371433;22;20022;-91
2021/01/24 14:34:17;;;;;;;9.45;7.20;;;;;;;5.52;62.68;98951.06;6370887;22;20110;-92
2021/01/24 14:36:44;;;;;;;9.43;7.35;;;;;;;7.20;62.95;99214.81;6372246;22;20442;-92
2021/01/24 14:39:10;;;;;;;8.77;6.78;;;;;;;5.47;62.96;98959.25;6372123;22;20018;-91
2021/01/24 14:41:39;;;;;;;7.97;6.43;;;;;;;5.01;63.16;98879.75;6371828;22;20019;-93
2021/01/24 14:44:05;;;;;;;8.57;6.30;;;;;;;7.05;63.47;99222.28;6371970;22;20075;-91
2021/01/24 14:46:32;;;;;;;9.77;7.25;;;;;;;5.84;63.13;99018.09;6370448;22;20022;-91
2021/01/24 14:48:58;;;;;;;10.05;7.55;;;;;;;6.72;63.13;99156.13;6369633;22;20486;-91
2021/01/24 14:51:27;;;;;;;10.65;7.18;;;;;;;4.62;62.88;98846.97;6370755;22;20606;-92
2021/01/24 14:53:54;;;;;;;9.73;7.47;;;;;;;3.57;63.00;98651.25;6371145;22;20061;-91
2021/01/24 14:56:20;;;;;;;8.90;7.20;;;;;;;6.95;63.44;99199.91;6371065;22;20038;-91
2021/01/24 14:58:46;;;;;;;9.07;7.22;;;;;;;7.17;62.98;99243.69;6343507;22;20015;-91
2021/01/24 15:01:13;;;;;;;8.95;6.97;;;;;;;5.25;63.12;98941.47;6370673;22;20033;-91
2021/01/24 15:03:39;;;;;;;10.02;6.97;;;;;;;7.05;63.57;99218.88;6372401;22;20396;-91
2021/01/24 15:06:05;;;;;;;8.93;6.68;;;;;;;7.26;63.04;99253.25;6371740;22;20019;-91
2021/01/24 15:08:32;;;;;;;8.23;6.68;;;;;;;6.96;63.36;99211.97;6371221;22;20083;-91
2021/01/24 15:10:58;;;;;;;11.43;6.88;;;;;;;5.62;63.02;98989.91;6371915;22;20022;-91
2021/01/24 15:13:24;;;;;;;9.25;6.72;;;;;;;6.82;63.67;99192.47;6371923;22;20072;-91
2021/01/24 15:15:50;;;;;;;8.65;6.57;;;;;;;7.15;62.97;99259.47;6370609;22;20026;-91
2021/01/24 15:18:17;;;;;;;10.07;7.63;;;;;;;6.40;63.38;99127.97;6370657;22;20041;-91
2021/01/24 15:20:45;;;;;;;9.23;6.93;;;;;;;7.33;63.39;99264.69;6369774;22;20022;-92
2021/01/24 15:23:11;;;;;;;10.13;6.68;;;;;;;6.58;63.12;99154.84;6344148;22;20022;-91
2021/01/24 15:25:38;;;;;;;9.90;6.68;;;;;;;6.61;63.46;99158.94;6371755;22;20018;-92
2021/01/24 15:28:04;;;;;;;8.68;6.47;;;;;;;6.90;63.20;99219.38;6371144;22;20018;-91
2021/01/24 15:30:30;;;;;;;8.00;6.05;;;;;;;6.91;63.52;99213.19;6370939;22;20022;-92
2021/01/24 15:32:56;;;;;;;7.22;5.95;;;;;;;3.32;62.72;98655.16;6367830;22;20018;-92
2021/01/24 15:35:25;;;;;;;8.32;6.53;;;;;;;5.67;63.22;99026.63;6367677;22;20674;-92
2021/01/24 15:37:51;;;;;;;8.30;5.97;;;;;;;5.65;63.45;99021.56;6367290;22;20046;-91
2021/01/24 15:40:20;;;;;;;8.07;6.22;;;;;;;6.91;63.50;99210.59;6369201;22;20101;-93
2021/01/24 15:43:01;;;;;;;8.30;6.35;;;;;;;7.01;63.58;99225.31;6365541;22;20054;-92
2021/01/24 15:45:27;;;;;;;8.45;6.20;;;;;;;7.11;62.97;99246.88;6366746;22;20022;-93
2021/01/24 15:47:55;;;;;;;9.10;6.32;;;;;;;5.52;63.21;99008.09;6366142;22;20025;-91
2021/01/24 15:50:23;;;;;;;8.55;6.13;;;;;;;5.81;63.36;99045.13;6372546;22;20420;-93
2021/01/24 15:53:43;;;;;;;8.18;6.43;;;;;;;6.43;62.59;99138.09;6350606;22;20018;-92
